sensor_id;sensor_type;location;lat;lon;timestamp;P1;durP1;ratioP1;P2;durP2;ratioP2
62709;SDS011;48770;51.624;5.886;2023-04-24T00:00:14;0.15;;;0.10;;
62709;SDS011;48770;51.624;5.886;2023-04-24T00:02:40;0.25;;;0.22;;
62709;SDS011;48770;51.624;5.886;2023-04-24T00:05:10;0.20;;;0.10;;
62709;SDS011;48770;51.624;5.886;2023-04-24T00:07:35;0.68;;;0.15;;
62709;SDS011;48770;51.624;5.886;2023-04-24T00:10:00;0.20;;;0.10;;
62709;SDS011;48770;51.624;5.886;2023-04-24T00:12:26;0.22;;;0.20;;
62709;SDS011;48770;51.624;5.886;2023-04-24T00:14:52;0.20;;;0.17;;
62709;SDS011;48770;51.624;5.886;2023-04-24T00:17:17;0.40;;;0.10;;
62709;SDS011;48770;51.624;5.886;2023-04-24T00:19:46;0.35;;;0.20;;
62709;SDS011;48770;51.624;5.886;2023-04-24T00:22:12;0.50;;;0.20;;
62709;SDS011;48770;51.624;5.886;2023-04-24T00:24:40;0.20;;;0.20;;
62709;SDS011;48770;51.624;5.886;2023-04-24T00:27:06;0.30;;;0.20;;
62709;SDS011;48770;51.624;5.886;2023-04-24T00:29:31;0.10;;;0.10;;
62709;SDS011;48770;51.624;5.886;2023-04-24T00:31:56;0.17;;;0.17;;
62709;SDS011;48770;51.624;5.886;2023-04-24T00:34:22;0.17;;;0.17;;
62709;SDS011;48770;51.624;5.886;2023-04-24T00:36:47;0.30;;;0.10;;
62709;SDS011;48770;51.624;5.886;2023-04-24T00:39:17;0.63;;;0.20;;
62709;SDS011;48770;51.624;5.886;2023-04-24T00:41:43;0.20;;;0.10;;
62709;SDS011;48770;51.624;5.886;2023-04-24T00:44:08;0.60;;;0.20;;
62709;SDS011;48770;51.624;5.886;2023-04-24T00:46:33;0.17;;;0.10;;
62709;SDS011;48770;51.624;5.886;2023-04-24T00:48:59;0.17;;;0.10;;
62709;SDS011;48770;51.624;5.886;2023-04-24T00:51:24;0.10;;;0.10;;
62709;SDS011;48770;51.624;5.886;2023-04-24T00:53:50;0.10;;;0.10;;
62709;SDS011;48770;51.624;5.886;2023-04-24T00:56:16;0.40;;;0.10;;
62709;SDS011;48770;51.624;5.886;2023-04-24T00:58:42;1.20;;;0.20;;
62709;SDS011;48770;51.624;5.886;2023-04-24T01:01:08;0.38;;;0.10;;
62709;SDS011;48770;51.624;5.886;2023-04-24T01:03:36;0.30;;;0.20;;
62709;SDS011;48770;51.624;5.886;2023-04-24T01:06:02;0.63;;;0.20;;
62709;SDS011;48770;51.624;5.886;2023-04-24T01:08:28;0.20;;;0.20;;
62709;SDS011;48770;51.624;5.886;2023-04-24T01:10:54;0.93;;;0.20;;
62709;SDS011;48770;51.624;5.886;2023-04-24T01:13:21;0.40;;;0.17;;
62709;SDS011;48770;51.624;5.886;2023-04-24T01:15:47;0.10;;;0.10;;
62709;SDS011;48770;51.624;5.886;2023-04-24T01:18:13;0.38;;;0.28;;
62709;SDS011;48770;51.624;5.886;2023-04-24T01:20:39;0.45;;;0.28;;
62709;SDS011;48770;51.624;5.886;2023-04-24T01:23:06;0.28;;;0.25;;
62709;SDS011;48770;51.624;5.886;2023-04-24T01:25:32;0.20;;;0.20;;
62709;SDS011;48770;51.624;5.886;2023-04-24T01:27:58;0.55;;;0.30;;
62709;SDS011;48770;51.624;5.886;2023-04-24T01:30:24;0.22;;;0.20;;
62709;SDS011;48770;51.624;5.886;2023-04-24T01:32:50;0.35;;;0.20;;
62709;SDS011;48770;51.624;5.886;2023-04-24T01:35:16;0.40;;;0.20;;
62709;SDS011;48770;51.624;5.886;2023-04-24T01:37:41;1.20;;;0.20;;
62709;SDS011;48770;51.624;5.886;2023-04-24T01:40:07;0.22;;;0.13;;
62709;SDS011;48770;51.624;5.886;2023-04-24T01:42:33;0.60;;;0.40;;
62709;SDS011;48770;51.624;5.886;2023-04-24T01:44:59;0.73;;;0.20;;
62709;SDS011;48770;51.624;5.886;2023-04-24T01:47:26;0.52;;;0.28;;
62709;SDS011;48770;51.624;5.886;2023-04-24T01:49:52;0.47;;;0.20;;
62709;SDS011;48770;51.624;5.886;2023-04-24T01:52:17;0.55;;;0.30;;
62709;SDS011;48770;51.624;5.886;2023-04-24T01:54:43;0.88;;;0.32;;
62709;SDS011;48770;51.624;5.886;2023-04-24T01:57:09;0.52;;;0.30;;
62709;SDS011;48770;51.624;5.886;2023-04-24T01:59:35;0.60;;;0.30;;
62709;SDS011;48770;51.624;5.886;2023-04-24T02:02:01;1.55;;;0.30;;
62709;SDS011;48770;51.624;5.886;2023-04-24T02:04:27;0.25;;;0.15;;
62709;SDS011;48770;51.624;5.886;2023-04-24T02:06:52;0.45;;;0.40;;
62709;SDS011;48770;51.624;5.886;2023-04-24T02:09:18;0.50;;;0.30;;
62709;SDS011;48770;51.624;5.886;2023-04-24T02:11:43;0.30;;;0.25;;
62709;SDS011;48770;51.624;5.886;2023-04-24T02:14:08;0.70;;;0.30;;
62709;SDS011;48770;51.624;5.886;2023-04-24T02:16:33;0.25;;;0.22;;
62709;SDS011;48770;51.624;5.886;2023-04-24T02:19:00;0.70;;;0.50;;
62709;SDS011;48770;51.624;5.886;2023-04-24T02:21:26;1.65;;;0.30;;
62709;SDS011;48770;51.624;5.886;2023-04-24T02:23:52;1.10;;;0.40;;
62709;SDS011;48770;51.624;5.886;2023-04-24T02:26:17;0.35;;;0.28;;
62709;SDS011;48770;51.624;5.886;2023-04-24T02:28:43;1.05;;;0.40;;
62709;SDS011;48770;51.624;5.886;2023-04-24T02:31:08;0.20;;;0.20;;
62709;SDS011;48770;51.624;5.886;2023-04-24T02:33:34;0.82;;;0.40;;
62709;SDS011;48770;51.624;5.886;2023-04-24T02:36:00;0.70;;;0.30;;
62709;SDS011;48770;51.624;5.886;2023-04-24T02:38:26;1.00;;;0.32;;
62709;SDS011;48770;51.624;5.886;2023-04-24T02:40:51;0.30;;;0.22;;
62709;SDS011;48770;51.624;5.886;2023-04-24T02:43:17;0.90;;;0.50;;
62709;SDS011;48770;51.624;5.886;2023-04-24T02:45:42;0.75;;;0.50;;
62709;SDS011;48770;51.624;5.886;2023-04-24T02:48:07;0.60;;;0.40;;
62709;SDS011;48770;51.624;5.886;2023-04-24T02:50:33;0.55;;;0.30;;
62709;SDS011;48770;51.624;5.886;2023-04-24T02:52:58;0.52;;;0.40;;
62709;SDS011;48770;51.624;5.886;2023-04-24T02:55:23;0.50;;;0.40;;
62709;SDS011;48770;51.624;5.886;2023-04-24T02:57:49;1.15;;;0.38;;
62709;SDS011;48770;51.624;5.886;2023-04-24T03:00:15;0.90;;;0.50;;
62709;SDS011;48770;51.624;5.886;2023-04-24T03:02:41;0.98;;;0.55;;
62709;SDS011;48770;51.624;5.886;2023-04-24T03:05:07;0.40;;;0.35;;
62709;SDS011;48770;51.624;5.886;2023-04-24T03:07:32;0.30;;;0.30;;
62709;SDS011;48770;51.624;5.886;2023-04-24T03:09:58;0.50;;;0.40;;
62709;SDS011;48770;51.624;5.886;2023-04-24T03:12:24;0.75;;;0.55;;
62709;SDS011;48770;51.624;5.886;2023-04-24T03:14:49;0.52;;;0.40;;
62709;SDS011;48770;51.624;5.886;2023-04-24T03:17:15;0.57;;;0.40;;
62709;SDS011;48770;51.624;5.886;2023-04-24T03:19:40;0.70;;;0.32;;
62709;SDS011;48770;51.624;5.886;2023-04-24T03:22:06;0.68;;;0.50;;
62709;SDS011;48770;51.624;5.886;2023-04-24T03:24:31;1.27;;;0.38;;
62709;SDS011;48770;51.624;5.886;2023-04-24T03:26:57;0.35;;;0.32;;
62709;SDS011;48770;51.624;5.886;2023-04-24T03:29:22;0.57;;;0.45;;
62709;SDS011;48770;51.624;5.886;2023-04-24T03:31:47;1.35;;;0.52;;
62709;SDS011;48770;51.624;5.886;2023-04-24T03:34:13;0.50;;;0.40;;
62709;SDS011;48770;51.624;5.886;2023-04-24T03:36:38;0.65;;;0.40;;
62709;SDS011;48770;51.624;5.886;2023-04-24T03:39:03;0.93;;;0.30;;
62709;SDS011;48770;51.624;5.886;2023-04-24T03:41:28;0.40;;;0.30;;
62709;SDS011;48770;51.624;5.886;2023-04-24T03:43:55;1.25;;;0.50;;
62709;SDS011;48770;51.624;5.886;2023-04-24T03:46:20;0.50;;;0.43;;
62709;SDS011;48770;51.624;5.886;2023-04-24T03:48:46;0.77;;;0.43;;
62709;SDS011;48770;51.624;5.886;2023-04-24T03:51:11;0.40;;;0.40;;
62709;SDS011;48770;51.624;5.886;2023-04-24T03:53:37;0.63;;;0.40;;
62709;SDS011;48770;51.624;5.886;2023-04-24T03:56:02;0.60;;;0.40;;
62709;SDS011;48770;51.624;5.886;2023-04-24T03:58:28;0.80;;;0.40;;
62709;SDS011;48770;51.624;5.886;2023-04-24T04:00:53;1.05;;;0.30;;
62709;SDS011;48770;51.624;5.886;2023-04-24T04:03:18;0.47;;;0.47;;
62709;SDS011;48770;51.624;5.886;2023-04-24T04:05:44;0.40;;;0.40;;
62709;SDS011;48770;51.624;5.886;2023-04-24T04:08:09;0.47;;;0.47;;
62709;SDS011;48770;51.624;5.886;2023-04-24T04:10:35;0.98;;;0.52;;
62709;SDS011;48770;51.624;5.886;2023-04-24T04:13:00;1.70;;;0.60;;
62709;SDS011;48770;51.624;5.886;2023-04-24T04:15:26;1.27;;;0.60;;
62709;SDS011;48770;51.624;5.886;2023-04-24T04:17:51;0.88;;;0.40;;
62709;SDS011;48770;51.624;5.886;2023-04-24T04:20:16;0.68;;;0.40;;
62709;SDS011;48770;51.624;5.886;2023-04-24T04:22:42;1.05;;;0.50;;
62709;SDS011;48770;51.624;5.886;2023-04-24T04:25:07;0.85;;;0.38;;
62709;SDS011;48770;51.624;5.886;2023-04-24T04:27:33;0.70;;;0.40;;
62709;SDS011;48770;51.624;5.886;2023-04-24T04:29:59;0.65;;;0.45;;
62709;SDS011;48770;51.624;5.886;2023-04-24T04:32:29;1.25;;;0.30;;
62709;SDS011;48770;51.624;5.886;2023-04-24T04:34:58;0.50;;;0.30;;
62709;SDS011;48770;51.624;5.886;2023-04-24T04:37:27;0.90;;;0.40;;
62709;SDS011;48770;51.624;5.886;2023-04-24T04:39:59;1.73;;;0.40;;
62709;SDS011;48770;51.624;5.886;2023-04-24T04:42:25;0.63;;;0.25;;
62709;SDS011;48770;51.624;5.886;2023-04-24T04:44:52;0.30;;;0.30;;
62709;SDS011;48770;51.624;5.886;2023-04-24T04:47:17;0.82;;;0.43;;
62709;SDS011;48770;51.624;5.886;2023-04-24T04:49:45;0.82;;;0.30;;
62709;SDS011;48770;51.624;5.886;2023-04-24T04:52:10;0.47;;;0.40;;
62709;SDS011;48770;51.624;5.886;2023-04-24T04:54:36;1.07;;;0.40;;
62709;SDS011;48770;51.624;5.886;2023-04-24T04:57:01;0.68;;;0.30;;
62709;SDS011;48770;51.624;5.886;2023-04-24T04:59:26;0.90;;;0.40;;
62709;SDS011;48770;51.624;5.886;2023-04-24T05:01:52;1.00;;;0.40;;
62709;SDS011;48770;51.624;5.886;2023-04-24T05:04:17;0.50;;;0.43;;
62709;SDS011;48770;51.624;5.886;2023-04-24T05:06:43;1.05;;;0.30;;
62709;SDS011;48770;51.624;5.886;2023-04-24T05:09:08;0.60;;;0.35;;
62709;SDS011;48770;51.624;5.886;2023-04-24T05:11:34;0.65;;;0.50;;
62709;SDS011;48770;51.624;5.886;2023-04-24T05:13:59;0.43;;;0.40;;
62709;SDS011;48770;51.624;5.886;2023-04-24T05:16:25;0.40;;;0.40;;
62709;SDS011;48770;51.624;5.886;2023-04-24T05:18:50;0.43;;;0.30;;
62709;SDS011;48770;51.624;5.886;2023-04-24T05:21:15;0.73;;;0.30;;
62709;SDS011;48770;51.624;5.886;2023-04-24T05:23:41;1.20;;;0.47;;
62709;SDS011;48770;51.624;5.886;2023-04-24T05:26:06;0.80;;;0.30;;
62709;SDS011;48770;51.624;5.886;2023-04-24T05:28:32;0.30;;;0.30;;
62709;SDS011;48770;51.624;5.886;2023-04-24T05:30:57;0.50;;;0.35;;
62709;SDS011;48770;51.624;5.886;2023-04-24T05:33:24;0.40;;;0.30;;
62709;SDS011;48770;51.624;5.886;2023-04-24T05:35:49;0.35;;;0.35;;
62709;SDS011;48770;51.624;5.886;2023-04-24T05:38:14;0.85;;;0.50;;
62709;SDS011;48770;51.624;5.886;2023-04-24T05:40:42;1.25;;;0.43;;
62709;SDS011;48770;51.624;5.886;2023-04-24T05:43:08;0.73;;;0.30;;
62709;SDS011;48770;51.624;5.886;2023-04-24T05:45:33;0.30;;;0.30;;
62709;SDS011;48770;51.624;5.886;2023-04-24T05:48:00;0.50;;;0.30;;
62709;SDS011;48770;51.624;5.886;2023-04-24T05:50:26;0.30;;;0.30;;
62709;SDS011;48770;51.624;5.886;2023-04-24T05:52:52;0.85;;;0.40;;
62709;SDS011;48770;51.624;5.886;2023-04-24T05:55:17;0.43;;;0.30;;
62709;SDS011;48770;51.624;5.886;2023-04-24T05:57:43;0.30;;;0.20;;
62709;SDS011;48770;51.624;5.886;2023-04-24T06:00:09;0.50;;;0.50;;
62709;SDS011;48770;51.624;5.886;2023-04-24T06:02:37;0.40;;;0.28;;
62709;SDS011;48770;51.624;5.886;2023-04-24T06:05:02;0.47;;;0.38;;
62709;SDS011;48770;51.624;5.886;2023-04-24T06:07:29;0.95;;;0.50;;
62709;SDS011;48770;51.624;5.886;2023-04-24T06:09:55;0.40;;;0.30;;
62709;SDS011;48770;51.624;5.886;2023-04-24T06:12:21;0.70;;;0.47;;
62709;SDS011;48770;51.624;5.886;2023-04-24T06:14:47;0.50;;;0.30;;
62709;SDS011;48770;51.624;5.886;2023-04-24T06:17:12;0.45;;;0.30;;
62709;SDS011;48770;51.624;5.886;2023-04-24T06:19:38;0.30;;;0.30;;
62709;SDS011;48770;51.624;5.886;2023-04-24T06:22:03;0.45;;;0.30;;
62709;SDS011;48770;51.624;5.886;2023-04-24T06:24:29;0.75;;;0.30;;
62709;SDS011;48770;51.624;5.886;2023-04-24T06:26:54;0.57;;;0.30;;
62709;SDS011;48770;51.624;5.886;2023-04-24T06:29:19;0.30;;;0.30;;
62709;SDS011;48770;51.624;5.886;2023-04-24T06:31:45;0.28;;;0.28;;
62709;SDS011;48770;51.624;5.886;2023-04-24T06:34:10;0.52;;;0.30;;
62709;SDS011;48770;51.624;5.886;2023-04-24T06:36:35;0.30;;;0.30;;
62709;SDS011;48770;51.624;5.886;2023-04-24T06:39:01;0.40;;;0.40;;
62709;SDS011;48770;51.624;5.886;2023-04-24T06:41:26;0.30;;;0.30;;
62709;SDS011;48770;51.624;5.886;2023-04-24T06:43:52;0.32;;;0.20;;
62709;SDS011;48770;51.624;5.886;2023-04-24T06:46:18;0.30;;;0.25;;
62709;SDS011;48770;51.624;5.886;2023-04-24T06:48:43;0.68;;;0.22;;
62709;SDS011;48770;51.624;5.886;2023-04-24T06:51:09;0.35;;;0.20;;
62709;SDS011;48770;51.624;5.886;2023-04-24T06:53:34;0.20;;;0.20;;
62709;SDS011;48770;51.624;5.886;2023-04-24T06:56:00;0.20;;;0.20;;
62709;SDS011;48770;51.624;5.886;2023-04-24T06:58:26;0.30;;;0.20;;
62709;SDS011;48770;51.624;5.886;2023-04-24T07:00:51;0.60;;;0.20;;
62709;SDS011;48770;51.624;5.886;2023-04-24T07:03:16;0.13;;;0.10;;
62709;SDS011;48770;51.624;5.886;2023-04-24T07:05:41;0.47;;;0.30;;
62709;SDS011;48770;51.624;5.886;2023-04-24T07:08:07;0.28;;;0.20;;
62709;SDS011;48770;51.624;5.886;2023-04-24T07:10:36;0.70;;;0.20;;
62709;SDS011;48770;51.624;5.886;2023-04-24T07:13:01;0.20;;;0.20;;
62709;SDS011;48770;51.624;5.886;2023-04-24T07:15:26;0.30;;;0.20;;
62709;SDS011;48770;51.624;5.886;2023-04-24T07:17:52;0.38;;;0.20;;
62709;SDS011;48770;51.624;5.886;2023-04-24T07:20:17;0.15;;;0.10;;
62709;SDS011;48770;51.624;5.886;2023-04-24T07:22:43;0.40;;;0.30;;
62709;SDS011;48770;51.624;5.886;2023-04-24T07:25:08;0.10;;;0.10;;
62709;SDS011;48770;51.624;5.886;2023-04-24T07:27:34;0.20;;;0.10;;
62709;SDS011;48770;51.624;5.886;2023-04-24T07:30:01;0.35;;;0.20;;
62709;SDS011;48770;51.624;5.886;2023-04-24T07:32:27;0.30;;;0.20;;
62709;SDS011;48770;51.624;5.886;2023-04-24T07:34:52;0.57;;;0.20;;
62709;SDS011;48770;51.624;5.886;2023-04-24T07:37:18;0.20;;;0.17;;
62709;SDS011;48770;51.624;5.886;2023-04-24T07:39:43;1.25;;;0.20;;
62709;SDS011;48770;51.624;5.886;2023-04-24T07:42:09;0.30;;;0.20;;
62709;SDS011;48770;51.624;5.886;2023-04-24T07:44:34;0.30;;;0.30;;
62709;SDS011;48770;51.624;5.886;2023-04-24T07:47:00;0.30;;;0.30;;
62709;SDS011;48770;51.624;5.886;2023-04-24T07:49:26;0.38;;;0.13;;
62709;SDS011;48770;51.624;5.886;2023-04-24T07:51:52;0.20;;;0.10;;
62709;SDS011;48770;51.624;5.886;2023-04-24T07:54:18;0.10;;;0.10;;
62709;SDS011;48770;51.624;5.886;2023-04-24T07:56:43;0.20;;;0.10;;
62709;SDS011;48770;51.624;5.886;2023-04-24T07:59:08;0.32;;;0.15;;
62709;SDS011;48770;51.624;5.886;2023-04-24T08:01:35;0.17;;;0.17;;
62709;SDS011;48770;51.624;5.886;2023-04-24T08:04:00;0.10;;;0.10;;
62709;SDS011;48770;51.624;5.886;2023-04-24T08:06:26;0.38;;;0.15;;
62709;SDS011;48770;51.624;5.886;2023-04-24T08:08:55;0.20;;;0.10;;
62709;SDS011;48770;51.624;5.886;2023-04-24T08:11:23;0.20;;;0.20;;
62709;SDS011;48770;51.624;5.886;2023-04-24T08:13:49;0.20;;;0.15;;
62709;SDS011;48770;51.624;5.886;2023-04-24T08:16:15;0.17;;;0.15;;
62709;SDS011;48770;51.624;5.886;2023-04-24T08:18:40;0.30;;;0.20;;
62709;SDS011;48770;51.624;5.886;2023-04-24T08:21:06;0.15;;;0.10;;
62709;SDS011;48770;51.624;5.886;2023-04-24T08:23:31;0.32;;;0.20;;
62709;SDS011;48770;51.624;5.886;2023-04-24T08:25:56;0.32;;;0.20;;
62709;SDS011;48770;51.624;5.886;2023-04-24T08:28:22;0.20;;;0.10;;
62709;SDS011;48770;51.624;5.886;2023-04-24T08:30:48;0.90;;;0.17;;
62709;SDS011;48770;51.624;5.886;2023-04-24T08:33:13;0.40;;;0.20;;
62709;SDS011;48770;51.624;5.886;2023-04-24T08:35:39;0.32;;;0.22;;
62709;SDS011;48770;51.624;5.886;2023-04-24T08:38:05;0.10;;;0.10;;
62709;SDS011;48770;51.624;5.886;2023-04-24T08:40:30;0.20;;;0.20;;
62709;SDS011;48770;51.624;5.886;2023-04-24T08:42:59;0.25;;;0.20;;
62709;SDS011;48770;51.624;5.886;2023-04-24T08:45:24;0.30;;;0.30;;
62709;SDS011;48770;51.624;5.886;2023-04-24T08:47:51;0.32;;;0.20;;
62709;SDS011;48770;51.624;5.886;2023-04-24T08:50:18;0.30;;;0.10;;
62709;SDS011;48770;51.624;5.886;2023-04-24T08:52:44;0.65;;;0.20;;
62709;SDS011;48770;51.624;5.886;2023-04-24T08:55:09;0.70;;;0.30;;
62709;SDS011;48770;51.624;5.886;2023-04-24T08:57:35;0.22;;;0.17;;
62709;SDS011;48770;51.624;5.886;2023-04-24T09:00:03;0.20;;;0.10;;
62709;SDS011;48770;51.624;5.886;2023-04-24T09:02:29;0.20;;;0.20;;
62709;SDS011;48770;51.624;5.886;2023-04-24T09:04:55;0.55;;;0.20;;
62709;SDS011;48770;51.624;5.886;2023-04-24T09:07:22;0.60;;;0.20;;
62709;SDS011;48770;51.624;5.886;2023-04-24T09:09:51;0.60;;;0.30;;
62709;SDS011;48770;51.624;5.886;2023-04-24T09:12:17;0.25;;;0.20;;
62709;SDS011;48770;51.624;5.886;2023-04-24T09:14:42;0.20;;;0.20;;
62709;SDS011;48770;51.624;5.886;2023-04-24T09:17:10;0.20;;;0.20;;
62709;SDS011;48770;51.624;5.886;2023-04-24T09:19:36;0.47;;;0.30;;
62709;SDS011;48770;51.624;5.886;2023-04-24T09:22:04;0.95;;;0.35;;
62709;SDS011;48770;51.624;5.886;2023-04-24T09:24:31;0.60;;;0.28;;
62709;SDS011;48770;51.624;5.886;2023-04-24T09:26:57;0.40;;;0.30;;
62709;SDS011;48770;51.624;5.886;2023-04-24T09:29:23;0.30;;;0.20;;
62709;SDS011;48770;51.624;5.886;2023-04-24T09:31:49;0.65;;;0.20;;
62709;SDS011;48770;51.624;5.886;2023-04-24T09:34:18;0.38;;;0.20;;
62709;SDS011;48770;51.624;5.886;2023-04-24T09:36:47;0.30;;;0.20;;
62709;SDS011;48770;51.624;5.886;2023-04-24T09:39:13;0.30;;;0.20;;
62709;SDS011;48770;51.624;5.886;2023-04-24T09:41:44;0.45;;;0.20;;
62709;SDS011;48770;51.624;5.886;2023-04-24T09:44:23;0.38;;;0.25;;
62709;SDS011;48770;51.624;5.886;2023-04-24T09:46:50;0.20;;;0.20;;
62709;SDS011;48770;51.624;5.886;2023-04-24T09:49:16;1.75;;;0.30;;
62709;SDS011;48770;51.624;5.886;2023-04-24T09:51:47;0.93;;;0.20;;
62709;SDS011;48770;51.624;5.886;2023-04-24T09:54:16;0.40;;;0.25;;
62709;SDS011;48770;51.624;5.886;2023-04-24T09:56:45;0.35;;;0.17;;
62709;SDS011;48770;51.624;5.886;2023-04-24T09:59:13;0.32;;;0.20;;
62709;SDS011;48770;51.624;5.886;2023-04-24T10:01:39;0.40;;;0.25;;
62709;SDS011;48770;51.624;5.886;2023-04-24T10:04:14;0.38;;;0.20;;
62709;SDS011;48770;51.624;5.886;2023-04-24T10:06:44;1.27;;;0.40;;
62709;SDS011;48770;51.624;5.886;2023-04-24T10:09:10;0.20;;;0.20;;
62709;SDS011;48770;51.624;5.886;2023-04-24T10:11:37;0.20;;;0.17;;
62709;SDS011;48770;51.624;5.886;2023-04-24T10:14:02;1.58;;;0.50;;
62709;SDS011;48770;51.624;5.886;2023-04-24T10:16:28;1.08;;;0.40;;
62709;SDS011;48770;51.624;5.886;2023-04-24T10:18:56;0.75;;;0.40;;
62709;SDS011;48770;51.624;5.886;2023-04-24T10:21:24;0.82;;;0.40;;
62709;SDS011;48770;51.624;5.886;2023-04-24T10:23:51;0.47;;;0.25;;
62709;SDS011;48770;51.624;5.886;2023-04-24T10:26:17;2.42;;;0.60;;
62709;SDS011;48770;51.624;5.886;2023-04-24T10:28:47;1.85;;;0.68;;
62709;SDS011;48770;51.624;5.886;2023-04-24T10:31:14;4.22;;;0.70;;
62709;SDS011;48770;51.624;5.886;2023-04-24T10:33:40;6.03;;;0.90;;
62709;SDS011;48770;51.624;5.886;2023-04-24T10:36:10;4.47;;;1.00;;
62709;SDS011;48770;51.624;5.886;2023-04-24T10:38:38;5.45;;;1.13;;
62709;SDS011;48770;51.624;5.886;2023-04-24T10:41:09;4.07;;;1.00;;
62709;SDS011;48770;51.624;5.886;2023-04-24T10:43:39;3.30;;;1.40;;
62709;SDS011;48770;51.624;5.886;2023-04-24T10:46:05;4.20;;;1.20;;
62709;SDS011;48770;51.624;5.886;2023-04-24T10:48:31;4.15;;;1.20;;
62709;SDS011;48770;51.624;5.886;2023-04-24T10:50:57;6.18;;;1.23;;
62709;SDS011;48770;51.624;5.886;2023-04-24T10:53:24;3.55;;;1.17;;
62709;SDS011;48770;51.624;5.886;2023-04-24T10:56:00;3.00;;;0.90;;
62709;SDS011;48770;51.624;5.886;2023-04-24T10:58:38;2.13;;;1.20;;
62709;SDS011;48770;51.624;5.886;2023-04-24T11:01:06;4.10;;;1.00;;
62709;SDS011;48770;51.624;5.886;2023-04-24T11:03:34;2.78;;;0.93;;
62709;SDS011;48770;51.624;5.886;2023-04-24T11:08:37;3.70;;;1.20;;
62709;SDS011;48770;51.624;5.886;2023-04-24T11:11:14;2.72;;;0.90;;
62709;SDS011;48770;51.624;5.886;2023-04-24T11:16:25;2.45;;;0.88;;
62709;SDS011;48770;51.624;5.886;2023-04-24T11:22:14;2.45;;;1.20;;
62709;SDS011;48770;51.624;5.886;2023-04-24T11:24:40;3.35;;;1.00;;
62709;SDS011;48770;51.624;5.886;2023-04-24T11:27:12;2.60;;;0.60;;
62709;SDS011;48770;51.624;5.886;2023-04-24T11:29:48;3.70;;;1.13;;
62709;SDS011;48770;51.624;5.886;2023-04-24T11:32:33;2.53;;;0.90;;
62709;SDS011;48770;51.624;5.886;2023-04-24T11:35:18;3.88;;;0.90;;
62709;SDS011;48770;51.624;5.886;2023-04-24T11:37:46;4.25;;;0.77;;
62709;SDS011;48770;51.624;5.886;2023-04-24T11:40:16;2.42;;;0.70;;
62709;SDS011;48770;51.624;5.886;2023-04-24T11:42:44;4.03;;;0.90;;
62709;SDS011;48770;51.624;5.886;2023-04-24T11:45:15;3.03;;;0.95;;
62709;SDS011;48770;51.624;5.886;2023-04-24T11:47:43;2.55;;;0.75;;
62709;SDS011;48770;51.624;5.886;2023-04-24T11:50:11;2.83;;;0.80;;
62709;SDS011;48770;51.624;5.886;2023-04-24T11:52:41;3.25;;;0.88;;
62709;SDS011;48770;51.624;5.886;2023-04-24T11:55:12;1.98;;;0.70;;
62709;SDS011;48770;51.624;5.886;2023-04-24T11:57:49;1.52;;;0.50;;
62709;SDS011;48770;51.624;5.886;2023-04-24T12:00:16;1.83;;;0.73;;
62709;SDS011;48770;51.624;5.886;2023-04-24T12:02:43;2.67;;;0.75;;
62709;SDS011;48770;51.624;5.886;2023-04-24T12:05:09;1.75;;;0.50;;
62709;SDS011;48770;51.624;5.886;2023-04-24T12:07:43;2.78;;;0.77;;
62709;SDS011;48770;51.624;5.886;2023-04-24T12:10:09;2.25;;;1.05;;
62709;SDS011;48770;51.624;5.886;2023-04-24T12:12:34;2.25;;;0.70;;
62709;SDS011;48770;51.624;5.886;2023-04-24T12:15:01;2.83;;;0.75;;
62709;SDS011;48770;51.624;5.886;2023-04-24T12:17:31;1.30;;;0.50;;
62709;SDS011;48770;51.624;5.886;2023-04-24T12:20:01;1.08;;;0.40;;
62709;SDS011;48770;51.624;5.886;2023-04-24T12:25:16;1.92;;;0.75;;
62709;SDS011;48770;51.624;5.886;2023-04-24T12:27:43;3.28;;;0.50;;
62709;SDS011;48770;51.624;5.886;2023-04-24T12:30:13;1.63;;;0.73;;
62709;SDS011;48770;51.624;5.886;2023-04-24T12:32:43;2.10;;;0.75;;
62709;SDS011;48770;51.624;5.886;2023-04-24T12:35:09;0.82;;;0.50;;
62709;SDS011;48770;51.624;5.886;2023-04-24T12:37:35;2.15;;;0.50;;
62709;SDS011;48770;51.624;5.886;2023-04-24T12:40:08;3.03;;;0.68;;
62709;SDS011;48770;51.624;5.886;2023-04-24T12:42:36;1.85;;;0.55;;
62709;SDS011;48770;51.624;5.886;2023-04-24T12:45:07;1.17;;;0.50;;
62709;SDS011;48770;51.624;5.886;2023-04-24T12:47:33;0.90;;;0.50;;
62709;SDS011;48770;51.624;5.886;2023-04-24T12:49:59;2.00;;;0.40;;
62709;SDS011;48770;51.624;5.886;2023-04-24T12:52:25;1.77;;;0.52;;
62709;SDS011;48770;51.624;5.886;2023-04-24T12:54:55;0.65;;;0.30;;
62709;SDS011;48770;51.624;5.886;2023-04-24T12:57:22;1.23;;;0.60;;
62709;SDS011;48770;51.624;5.886;2023-04-24T12:59:49;0.90;;;0.40;;
62709;SDS011;48770;51.624;5.886;2023-04-24T13:02:15;1.45;;;0.50;;
62709;SDS011;48770;51.624;5.886;2023-04-24T13:04:43;0.98;;;0.40;;
62709;SDS011;48770;51.624;5.886;2023-04-24T13:07:10;1.63;;;0.57;;
62709;SDS011;48770;51.624;5.886;2023-04-24T13:09:35;1.63;;;0.43;;
62709;SDS011;48770;51.624;5.886;2023-04-24T13:12:01;1.52;;;0.40;;
62709;SDS011;48770;51.624;5.886;2023-04-24T13:14:26;2.15;;;0.57;;
62709;SDS011;48770;51.624;5.886;2023-04-24T13:16:52;0.77;;;0.30;;
62709;SDS011;48770;51.624;5.886;2023-04-24T13:19:17;0.82;;;0.47;;
62709;SDS011;48770;51.624;5.886;2023-04-24T13:21:43;3.72;;;0.47;;
62709;SDS011;48770;51.624;5.886;2023-04-24T13:24:09;1.35;;;0.30;;
62709;SDS011;48770;51.624;5.886;2023-04-24T13:26:34;1.05;;;0.30;;
62709;SDS011;48770;51.624;5.886;2023-04-24T13:29:00;1.52;;;0.50;;
62709;SDS011;48770;51.624;5.886;2023-04-24T13:31:25;3.50;;;0.57;;
62709;SDS011;48770;51.624;5.886;2023-04-24T13:33:51;1.15;;;0.45;;
62709;SDS011;48770;51.624;5.886;2023-04-24T13:36:16;2.28;;;0.40;;
62709;SDS011;48770;51.624;5.886;2023-04-24T13:38:42;0.63;;;0.40;;
62709;SDS011;48770;51.624;5.886;2023-04-24T13:41:09;0.75;;;0.30;;
62709;SDS011;48770;51.624;5.886;2023-04-24T13:43:34;1.65;;;0.50;;
62709;SDS011;48770;51.624;5.886;2023-04-24T13:46:00;0.73;;;0.30;;
62709;SDS011;48770;51.624;5.886;2023-04-24T13:48:27;0.63;;;0.30;;
62709;SDS011;48770;51.624;5.886;2023-04-24T13:50:53;1.00;;;0.40;;
62709;SDS011;48770;51.624;5.886;2023-04-24T13:53:18;0.63;;;0.30;;
62709;SDS011;48770;51.624;5.886;2023-04-24T13:55:43;0.30;;;0.30;;
62709;SDS011;48770;51.624;5.886;2023-04-24T13:58:09;0.43;;;0.20;;
62709;SDS011;48770;51.624;5.886;2023-04-24T14:00:35;0.57;;;0.30;;
62709;SDS011;48770;51.624;5.886;2023-04-24T14:03:00;1.00;;;0.30;;
62709;SDS011;48770;51.624;5.886;2023-04-24T14:05:26;0.60;;;0.20;;
62709;SDS011;48770;51.624;5.886;2023-04-24T14:07:51;1.05;;;0.30;;
62709;SDS011;48770;51.624;5.886;2023-04-24T14:10:16;0.47;;;0.20;;
62709;SDS011;48770;51.624;5.886;2023-04-24T14:12:42;1.75;;;0.25;;
62709;SDS011;48770;51.624;5.886;2023-04-24T14:15:07;0.20;;;0.20;;
62709;SDS011;48770;51.624;5.886;2023-04-24T14:17:33;0.55;;;0.20;;
62709;SDS011;48770;51.624;5.886;2023-04-24T14:19:59;1.05;;;0.20;;
62709;SDS011;48770;51.624;5.886;2023-04-24T14:22:25;0.68;;;0.30;;
62709;SDS011;48770;51.624;5.886;2023-04-24T14:24:50;0.73;;;0.20;;
62709;SDS011;48770;51.624;5.886;2023-04-24T14:27:16;0.40;;;0.20;;
62709;SDS011;48770;51.624;5.886;2023-04-24T14:29:41;0.98;;;0.32;;
62709;SDS011;48770;51.624;5.886;2023-04-24T14:32:07;1.20;;;0.40;;
62709;SDS011;48770;51.624;5.886;2023-04-24T14:34:33;0.57;;;0.30;;
62709;SDS011;48770;51.624;5.886;2023-04-24T14:36:59;1.00;;;0.30;;
62709;SDS011;48770;51.624;5.886;2023-04-24T14:39:25;1.17;;;0.35;;
62709;SDS011;48770;51.624;5.886;2023-04-24T14:41:50;0.60;;;0.20;;
62709;SDS011;48770;51.624;5.886;2023-04-24T14:44:15;1.30;;;0.30;;
62709;SDS011;48770;51.624;5.886;2023-04-24T14:46:41;0.35;;;0.13;;
62709;SDS011;48770;51.624;5.886;2023-04-24T14:49:07;0.32;;;0.20;;
62709;SDS011;48770;51.624;5.886;2023-04-24T14:51:34;0.20;;;0.17;;
62709;SDS011;48770;51.624;5.886;2023-04-24T14:54:00;3.10;;;0.35;;